sensor_id;sensor_type;location;lat;lon;timestamp;temperature;humidity
7516;DHT22;3799;47.184;8.538;2023-02-28T00:00:33;1.40;99.90
7516;DHT22;3799;47.184;8.538;2023-02-28T00:03:07;1.20;99.90
7516;DHT22;3799;47.184;8.538;2023-02-28T00:05:36;1.30;99.90
7516;DHT22;3799;47.184;8.538;2023-02-28T00:08:04;1.10;99.90
7516;DHT22;3799;47.184;8.538;2023-02-28T00:10:31;1.30;99.90
7516;DHT22;3799;47.184;8.538;2023-02-28T00:13:02;1.10;99.90
7516;DHT22;3799;47.184;8.538;2023-02-28T00:15:45;1.20;99.90
7516;DHT22;3799;47.184;8.538;2023-02-28T00:18:12;1.20;99.90
7516;DHT22;3799;47.184;8.538;2023-02-28T00:20:40;1.10;99.90
7516;DHT22;3799;47.184;8.538;2023-02-28T00:23:08;1.00;99.90
7516;DHT22;3799;47.184;8.538;2023-02-28T00:25:35;1.10;99.90
7516;DHT22;3799;47.184;8.538;2023-02-28T00:28:02;1.10;99.90
7516;DHT22;3799;47.184;8.538;2023-02-28T00:30:32;1.20;99.90
7516;DHT22;3799;47.184;8.538;2023-02-28T00:33:00;1.10;99.90
7516;DHT22;3799;47.184;8.538;2023-02-28T00:35:28;1.10;99.90
7516;DHT22;3799;47.184;8.538;2023-02-28T00:37:56;1.20;99.90
7516;DHT22;3799;47.184;8.538;2023-02-28T00:40:23;0.90;99.90
7516;DHT22;3799;47.184;8.538;2023-02-28T00:42:51;0.90;99.90
7516;DHT22;3799;47.184;8.538;2023-02-28T00:45:18;1.00;99.90
7516;DHT22;3799;47.184;8.538;2023-02-28T00:47:46;1.10;99.90
7516;DHT22;3799;47.184;8.538;2023-02-28T00:50:19;1.00;99.90
7516;DHT22;3799;47.184;8.538;2023-02-28T00:52:47;0.90;99.90
7516;DHT22;3799;47.184;8.538;2023-02-28T00:55:14;0.90;99.90
7516;DHT22;3799;47.184;8.538;2023-02-28T00:57:42;0.90;99.90
7516;DHT22;3799;47.184;8.538;2023-02-28T01:00:12;1.00;99.90
7516;DHT22;3799;47.184;8.538;2023-02-28T01:02:40;1.00;99.90
7516;DHT22;3799;47.184;8.538;2023-02-28T01:05:07;1.20;99.90
7516;DHT22;3799;47.184;8.538;2023-02-28T01:07:49;1.20;99.90
7516;DHT22;3799;47.184;8.538;2023-02-28T01:10:16;1.20;99.90
7516;DHT22;3799;47.184;8.538;2023-02-28T01:12:44;1.10;99.90
7516;DHT22;3799;47.184;8.538;2023-02-28T01:15:11;1.40;99.90
7516;DHT22;3799;47.184;8.538;2023-02-28T01:17:39;1.30;99.90
7516;DHT22;3799;47.184;8.538;2023-02-28T01:20:06;1.10;99.90
7516;DHT22;3799;47.184;8.538;2023-02-28T01:22:34;1.10;99.90
7516;DHT22;3799;47.184;8.538;2023-02-28T01:25:02;1.40;99.90
7516;DHT22;3799;47.184;8.538;2023-02-28T01:27:30;1.20;99.90
7516;DHT22;3799;47.184;8.538;2023-02-28T01:29:59;1.20;99.90
7516;DHT22;3799;47.184;8.538;2023-02-28T01:32:35;1.20;99.90
7516;DHT22;3799;47.184;8.538;2023-02-28T01:35:03;1.10;99.90
7516;DHT22;3799;47.184;8.538;2023-02-28T01:37:30;1.30;99.90
7516;DHT22;3799;47.184;8.538;2023-02-28T01:39:57;1.10;99.90
7516;DHT22;3799;47.184;8.538;2023-02-28T01:42:24;1.10;99.90
7516;DHT22;3799;47.184;8.538;2023-02-28T01:44:59;1.20;99.90
7516;DHT22;3799;47.184;8.538;2023-02-28T01:47:36;1.10;99.90
7516;DHT22;3799;47.184;8.538;2023-02-28T01:50:09;1.10;99.90
7516;DHT22;3799;47.184;8.538;2023-02-28T01:52:38;1.20;99.90
7516;DHT22;3799;47.184;8.538;2023-02-28T01:55:06;1.30;99.90
7516;DHT22;3799;47.184;8.538;2023-02-28T01:57:37;1.30;99.90
7516;DHT22;3799;47.184;8.538;2023-02-28T02:00:09;1.10;99.90
7516;DHT22;3799;47.184;8.538;2023-02-28T02:02:42;1.20;99.90
7516;DHT22;3799;47.184;8.538;2023-02-28T02:05:15;1.30;99.90
7516;DHT22;3799;47.184;8.538;2023-02-28T02:07:45;1.10;99.90
7516;DHT22;3799;47.184;8.538;2023-02-28T02:10:17;1.20;99.90
7516;DHT22;3799;47.184;8.538;2023-02-28T02:15:36;1.10;99.90
7516;DHT22;3799;47.184;8.538;2023-02-28T02:18:27;1.20;99.90
7516;DHT22;3799;47.184;8.538;2023-02-28T02:34:49;1.10;99.90
7516;DHT22;3799;47.184;8.538;2023-02-28T02:37:44;1.30;99.90
7516;DHT22;3799;47.184;8.538;2023-02-28T02:40:16;1.40;99.90
7516;DHT22;3799;47.184;8.538;2023-02-28T02:42:55;1.20;99.90
7516;DHT22;3799;47.184;8.538;2023-02-28T02:45:30;1.20;99.90
7516;DHT22;3799;47.184;8.538;2023-02-28T02:48:06;1.20;99.90
7516;DHT22;3799;47.184;8.538;2023-02-28T02:50:41;1.10;99.90
7516;DHT22;3799;47.184;8.538;2023-02-28T02:53:12;1.10;99.90
7516;DHT22;3799;47.184;8.538;2023-02-28T02:55:44;1.20;99.90
7516;DHT22;3799;47.184;8.538;2023-02-28T02:58:16;1.30;99.90
7516;DHT22;3799;47.184;8.538;2023-02-28T03:00:47;1.10;99.90
7516;DHT22;3799;47.184;8.538;2023-02-28T03:03:18;1.20;99.90
7516;DHT22;3799;47.184;8.538;2023-02-28T03:05:49;1.30;99.90
7516;DHT22;3799;47.184;8.538;2023-02-28T03:08:17;1.20;99.90
7516;DHT22;3799;47.184;8.538;2023-02-28T03:11:10;1.20;99.90
7516;DHT22;3799;47.184;8.538;2023-02-28T03:13:48;1.20;99.90
7516;DHT22;3799;47.184;8.538;2023-02-28T03:16:32;1.10;99.90
7516;DHT22;3799;47.184;8.538;2023-02-28T03:25:01;1.10;99.90
7516;DHT22;3799;47.184;8.538;2023-02-28T03:27:59;1.40;99.90
7516;DHT22;3799;47.184;8.538;2023-02-28T03:33:21;1.30;99.90
7516;DHT22;3799;47.184;8.538;2023-02-28T03:36:01;1.30;99.90
7516;DHT22;3799;47.184;8.538;2023-02-28T03:38:41;1.10;99.90
7516;DHT22;3799;47.184;8.538;2023-02-28T03:41:23;1.20;99.90
7516;DHT22;3799;47.184;8.538;2023-02-28T03:43:54;1.20;99.90
7516;DHT22;3799;47.184;8.538;2023-02-28T03:46:25;1.20;99.90
7516;DHT22;3799;47.184;8.538;2023-02-28T03:49:14;1.20;99.90
7516;DHT22;3799;47.184;8.538;2023-02-28T03:51:43;1.20;99.90
7516;DHT22;3799;47.184;8.538;2023-02-28T03:54:15;1.30;99.90
7516;DHT22;3799;47.184;8.538;2023-02-28T03:56:59;1.10;99.90
7516;DHT22;3799;47.184;8.538;2023-02-28T03:59:40;1.20;99.90
7516;DHT22;3799;47.184;8.538;2023-02-28T04:02:09;1.00;99.90
7516;DHT22;3799;47.184;8.538;2023-02-28T04:04:36;1.00;99.90
7516;DHT22;3799;47.184;8.538;2023-02-28T04:07:06;1.00;99.90
7516;DHT22;3799;47.184;8.538;2023-02-28T04:09:35;1.00;99.90
7516;DHT22;3799;47.184;8.538;2023-02-28T04:12:02;1.00;99.90
7516;DHT22;3799;47.184;8.538;2023-02-28T04:14:30;1.00;99.90
7516;DHT22;3799;47.184;8.538;2023-02-28T04:16:57;1.00;99.90
7516;DHT22;3799;47.184;8.538;2023-02-28T04:19:25;0.90;99.90
7516;DHT22;3799;47.184;8.538;2023-02-28T04:21:53;1.10;99.90
7516;DHT22;3799;47.184;8.538;2023-02-28T04:24:26;1.10;99.90
7516;DHT22;3799;47.184;8.538;2023-02-28T04:26:55;1.00;99.90
7516;DHT22;3799;47.184;8.538;2023-02-28T04:29:32;0.90;99.90
7516;DHT22;3799;47.184;8.538;2023-02-28T04:32:00;1.00;99.90
7516;DHT22;3799;47.184;8.538;2023-02-28T04:34:30;1.00;99.90
7516;DHT22;3799;47.184;8.538;2023-02-28T04:36:57;1.20;99.90
7516;DHT22;3799;47.184;8.538;2023-02-28T04:39:40;1.20;99.90
7516;DHT22;3799;47.184;8.538;2023-02-28T04:42:08;1.30;99.90
7516;DHT22;3799;47.184;8.538;2023-02-28T04:44:35;1.20;99.90
7516;DHT22;3799;47.184;8.538;2023-02-28T04:47:02;1.20;99.90
7516;DHT22;3799;47.184;8.538;2023-02-28T04:49:29;1.10;99.90
7516;DHT22;3799;47.184;8.538;2023-02-28T04:51:56;1.20;99.90
7516;DHT22;3799;47.184;8.538;2023-02-28T04:54:24;1.10;99.90
7516;DHT22;3799;47.184;8.538;2023-02-28T04:56:52;1.20;99.90
7516;DHT22;3799;47.184;8.538;2023-02-28T04:59:19;1.20;99.90
7516;DHT22;3799;47.184;8.538;2023-02-28T05:01:56;1.20;99.90
7516;DHT22;3799;47.184;8.538;2023-02-28T05:04:23;1.20;99.90
7516;DHT22;3799;47.184;8.538;2023-02-28T05:06:50;1.30;99.90
7516;DHT22;3799;47.184;8.538;2023-02-28T05:09:18;1.10;99.90
7516;DHT22;3799;47.184;8.538;2023-02-28T05:11:54;1.20;99.90
7516;DHT22;3799;47.184;8.538;2023-02-28T05:14:22;1.10;99.90
7516;DHT22;3799;47.184;8.538;2023-02-28T05:16:50;1.20;99.90
7516;DHT22;3799;47.184;8.538;2023-02-28T05:19:17;1.20;99.90
7516;DHT22;3799;47.184;8.538;2023-02-28T05:21:53;1.20;99.90
7516;DHT22;3799;47.184;8.538;2023-02-28T05:24:21;1.00;99.90
7516;DHT22;3799;47.184;8.538;2023-02-28T05:26:52;1.20;99.90
7516;DHT22;3799;47.184;8.538;2023-02-28T05:29:21;1.00;99.90
7516;DHT22;3799;47.184;8.538;2023-02-28T05:31:49;1.20;99.90
7516;DHT22;3799;47.184;8.538;2023-02-28T05:34:17;1.00;99.90
7516;DHT22;3799;47.184;8.538;2023-02-28T05:36:45;1.10;99.90
7516;DHT22;3799;47.184;8.538;2023-02-28T05:39:17;1.10;99.90
7516;DHT22;3799;47.184;8.538;2023-02-28T05:41:47;1.00;99.90
7516;DHT22;3799;47.184;8.538;2023-02-28T05:44:15;1.10;99.90
7516;DHT22;3799;47.184;8.538;2023-02-28T05:46:42;1.20;99.90
7516;DHT22;3799;47.184;8.538;2023-02-28T05:49:10;1.30;99.90
7516;DHT22;3799;47.184;8.538;2023-02-28T05:51:39;1.00;99.90
7516;DHT22;3799;47.184;8.538;2023-02-28T05:54:07;1.30;99.90
7516;DHT22;3799;47.184;8.538;2023-02-28T05:56:35;1.00;99.90
7516;DHT22;3799;47.184;8.538;2023-02-28T05:59:04;1.00;99.90
7516;DHT22;3799;47.184;8.538;2023-02-28T06:01:43;1.00;99.90
7516;DHT22;3799;47.184;8.538;2023-02-28T06:04:17;1.10;99.90
7516;DHT22;3799;47.184;8.538;2023-02-28T06:07:01;1.10;99.90
7516;DHT22;3799;47.184;8.538;2023-02-28T06:09:28;1.00;99.90
7516;DHT22;3799;47.184;8.538;2023-02-28T06:12:06;1.10;99.90
7516;DHT22;3799;47.184;8.538;2023-02-28T06:14:36;1.10;99.90
7516;DHT22;3799;47.184;8.538;2023-02-28T06:17:08;1.30;99.90
7516;DHT22;3799;47.184;8.538;2023-02-28T06:19:37;1.10;99.90
7516;DHT22;3799;47.184;8.538;2023-02-28T06:22:06;1.00;99.90
7516;DHT22;3799;47.184;8.538;2023-02-28T06:24:33;0.90;99.90
7516;DHT22;3799;47.184;8.538;2023-02-28T06:27:00;1.20;99.90
7516;DHT22;3799;47.184;8.538;2023-02-28T06:29:33;1.10;99.90
7516;DHT22;3799;47.184;8.538;2023-02-28T06:32:02;1.20;99.90
7516;DHT22;3799;47.184;8.538;2023-02-28T06:34:29;1.20;99.90
7516;DHT22;3799;47.184;8.538;2023-02-28T06:36:56;1.20;99.90
7516;DHT22;3799;47.184;8.538;2023-02-28T06:39:29;1.10;99.90
7516;DHT22;3799;47.184;8.538;2023-02-28T06:41:56;1.10;99.90
7516;DHT22;3799;47.184;8.538;2023-02-28T06:44:24;1.00;99.90
7516;DHT22;3799;47.184;8.538;2023-02-28T06:46:51;1.20;99.90
7516;DHT22;3799;47.184;8.538;2023-02-28T06:49:19;1.10;99.90
7516;DHT22;3799;47.184;8.538;2023-02-28T06:51:46;1.30;99.90
7516;DHT22;3799;47.184;8.538;2023-02-28T06:54:13;1.20;99.90
7516;DHT22;3799;47.184;8.538;2023-02-28T06:56:41;1.10;99.90
7516;DHT22;3799;47.184;8.538;2023-02-28T06:59:10;1.40;99.90
7516;DHT22;3799;47.184;8.538;2023-02-28T07:01:38;1.40;99.90
7516;DHT22;3799;47.184;8.538;2023-02-28T07:04:08;1.60;99.90
7516;DHT22;3799;47.184;8.538;2023-02-28T07:06:36;1.70;99.90
7516;DHT22;3799;47.184;8.538;2023-02-28T07:09:03;2.30;99.90
7516;DHT22;3799;47.184;8.538;2023-02-28T07:11:32;2.50;99.90
7516;DHT22;3799;47.184;8.538;2023-02-28T07:13:59;2.70;99.90
7516;DHT22;3799;47.184;8.538;2023-02-28T07:16:27;2.50;99.90
7516;DHT22;3799;47.184;8.538;2023-02-28T07:18:54;2.60;99.90
7516;DHT22;3799;47.184;8.538;2023-02-28T07:21:22;2.70;99.90
7516;DHT22;3799;47.184;8.538;2023-02-28T07:23:50;2.40;99.90
7516;DHT22;3799;47.184;8.538;2023-02-28T07:26:20;2.80;99.90
7516;DHT22;3799;47.184;8.538;2023-02-28T07:28:48;2.90;99.90
7516;DHT22;3799;47.184;8.538;2023-02-28T07:31:24;2.90;99.90
7516;DHT22;3799;47.184;8.538;2023-02-28T07:33:52;2.40;99.90
7516;DHT22;3799;47.184;8.538;2023-02-28T07:36:21;2.50;99.90
7516;DHT22;3799;47.184;8.538;2023-02-28T07:38:48;2.10;99.90
7516;DHT22;3799;47.184;8.538;2023-02-28T07:41:21;2.10;99.90
7516;DHT22;3799;47.184;8.538;2023-02-28T07:43:52;2.10;99.90
7516;DHT22;3799;47.184;8.538;2023-02-28T07:46:27;2.20;99.90
7516;DHT22;3799;47.184;8.538;2023-02-28T07:48:57;2.30;99.90
7516;DHT22;3799;47.184;8.538;2023-02-28T07:51:26;2.70;99.90
7516;DHT22;3799;47.184;8.538;2023-02-28T07:53:54;3.20;99.90
7516;DHT22;3799;47.184;8.538;2023-02-28T07:56:22;3.50;99.90
7516;DHT22;3799;47.184;8.538;2023-02-28T07:58:49;4.20;99.90
7516;DHT22;3799;47.184;8.538;2023-02-28T08:01:17;4.40;99.90
7516;DHT22;3799;47.184;8.538;2023-02-28T08:03:47;4.00;99.90
7516;DHT22;3799;47.184;8.538;2023-02-28T08:06:18;4.00;99.90
7516;DHT22;3799;47.184;8.538;2023-02-28T08:08:47;3.70;99.50
7516;DHT22;3799;47.184;8.538;2023-02-28T08:11:15;3.60;99.90
7516;DHT22;3799;47.184;8.538;2023-02-28T08:13:44;3.80;99.80
7516;DHT22;3799;47.184;8.538;2023-02-28T08:16:13;3.70;98.30
7516;DHT22;3799;47.184;8.538;2023-02-28T08:18:45;3.40;97.80
7516;DHT22;3799;47.184;8.538;2023-02-28T08:21:12;3.40;98.90
7516;DHT22;3799;47.184;8.538;2023-02-28T08:23:40;3.50;98.60
7516;DHT22;3799;47.184;8.538;2023-02-28T08:26:08;3.70;98.60
7516;DHT22;3799;47.184;8.538;2023-02-28T08:28:35;3.60;98.00
7516;DHT22;3799;47.184;8.538;2023-02-28T08:31:10;3.60;97.50
7516;DHT22;3799;47.184;8.538;2023-02-28T08:33:40;3.50;96.70
7516;DHT22;3799;47.184;8.538;2023-02-28T08:36:08;3.30;94.90
7516;DHT22;3799;47.184;8.538;2023-02-28T08:38:37;3.30;95.70
7516;DHT22;3799;47.184;8.538;2023-02-28T08:41:06;3.30;96.10
7516;DHT22;3799;47.184;8.538;2023-02-28T08:43:35;3.40;96.80
7516;DHT22;3799;47.184;8.538;2023-02-28T08:46:04;3.00;96.60
7516;DHT22;3799;47.184;8.538;2023-02-28T08:48:34;3.00;96.90
7516;DHT22;3799;47.184;8.538;2023-02-28T08:51:15;3.20;97.20
7516;DHT22;3799;47.184;8.538;2023-02-28T08:53:45;3.10;96.80
7516;DHT22;3799;47.184;8.538;2023-02-28T08:56:14;3.40;96.70
7516;DHT22;3799;47.184;8.538;2023-02-28T08:58:44;3.40;96.90
7516;DHT22;3799;47.184;8.538;2023-02-28T09:01:20;3.10;96.40
7516;DHT22;3799;47.184;8.538;2023-02-28T09:03:49;3.20;95.90
7516;DHT22;3799;47.184;8.538;2023-02-28T09:06:22;3.10;96.40
7516;DHT22;3799;47.184;8.538;2023-02-28T09:08:50;3.10;96.80
7516;DHT22;3799;47.184;8.538;2023-02-28T09:11:18;3.40;96.50
7516;DHT22;3799;47.184;8.538;2023-02-28T09:13:46;3.40;96.60
7516;DHT22;3799;47.184;8.538;2023-02-28T09:16:15;3.10;96.60
7516;DHT22;3799;47.184;8.538;2023-02-28T09:18:44;3.10;96.60
7516;DHT22;3799;47.184;8.538;2023-02-28T09:21:17;3.20;96.50
7516;DHT22;3799;47.184;8.538;2023-02-28T09:23:46;3.20;96.50
7516;DHT22;3799;47.184;8.538;2023-02-28T09:26:17;3.20;96.80
7516;DHT22;3799;47.184;8.538;2023-02-28T09:28:44;3.00;96.20
7516;DHT22;3799;47.184;8.538;2023-02-28T09:31:27;3.10;96.50
7516;DHT22;3799;47.184;8.538;2023-02-28T09:33:56;3.40;97.00
7516;DHT22;3799;47.184;8.538;2023-02-28T09:36:25;3.40;96.50
7516;DHT22;3799;47.184;8.538;2023-02-28T09:39:12;3.40;95.60
7516;DHT22;3799;47.184;8.538;2023-02-28T09:41:46;3.30;95.60
7516;DHT22;3799;47.184;8.538;2023-02-28T09:44:38;3.30;95.60
7516;DHT22;3799;47.184;8.538;2023-02-28T09:49:43;3.60;95.40
7516;DHT22;3799;47.184;8.538;2023-02-28T09:52:20;3.60;94.60
7516;DHT22;3799;47.184;8.538;2023-02-28T09:54:50;3.50;94.00
7516;DHT22;3799;47.184;8.538;2023-02-28T09:57:33;3.60;94.10
7516;DHT22;3799;47.184;8.538;2023-02-28T10:00:27;3.70;94.00
7516;DHT22;3799;47.184;8.538;2023-02-28T10:03:17;3.50;94.00
7516;DHT22;3799;47.184;8.538;2023-02-28T10:08:27;3.70;94.10
7516;DHT22;3799;47.184;8.538;2023-02-28T10:11:06;3.60;94.10
7516;DHT22;3799;47.184;8.538;2023-02-28T10:16:43;3.90;92.60
7516;DHT22;3799;47.184;8.538;2023-02-28T10:19:42;3.90;91.90
7516;DHT22;3799;47.184;8.538;2023-02-28T10:22:15;3.80;92.60
7516;DHT22;3799;47.184;8.538;2023-02-28T10:24:51;3.90;92.70
7516;DHT22;3799;47.184;8.538;2023-02-28T10:27:29;3.90;91.10
7516;DHT22;3799;47.184;8.538;2023-02-28T10:30:14;3.90;92.30
7516;DHT22;3799;47.184;8.538;2023-02-28T10:32:53;3.90;92.30
7516;DHT22;3799;47.184;8.538;2023-02-28T10:35:27;3.90;92.40
7516;DHT22;3799;47.184;8.538;2023-02-28T10:38:04;4.40;91.30
7516;DHT22;3799;47.184;8.538;2023-02-28T10:40:51;4.30;90.70
7516;DHT22;3799;47.184;8.538;2023-02-28T10:43:30;4.10;90.70
7516;DHT22;3799;47.184;8.538;2023-02-28T10:48:33;4.30;91.00
7516;DHT22;3799;47.184;8.538;2023-02-28T10:51:02;4.10;90.10
7516;DHT22;3799;47.184;8.538;2023-02-28T10:56:27;4.20;89.60
7516;DHT22;3799;47.184;8.538;2023-02-28T11:01:46;4.20;90.30
7516;DHT22;3799;47.184;8.538;2023-02-28T11:07:03;4.20;89.40
7516;DHT22;3799;47.184;8.538;2023-02-28T11:09:33;4.10;89.40
7516;DHT22;3799;47.184;8.538;2023-02-28T11:12:07;4.20;89.40
7516;DHT22;3799;47.184;8.538;2023-02-28T11:14:57;4.10;90.40
7516;DHT22;3799;47.184;8.538;2023-02-28T11:17:30;4.10;90.10
7516;DHT22;3799;47.184;8.538;2023-02-28T11:20:06;4.30;90.10
7516;DHT22;3799;47.184;8.538;2023-02-28T11:22:43;4.30;90.00
7516;DHT22;3799;47.184;8.538;2023-02-28T11:25:25;4.20;89.20
7516;DHT22;3799;47.184;8.538;2023-02-28T11:27:56;4.20;89.00
7516;DHT22;3799;47.184;8.538;2023-02-28T11:32:58;4.40;88.40
7516;DHT22;3799;47.184;8.538;2023-02-28T11:35:45;4.30;88.10
7516;DHT22;3799;47.184;8.538;2023-02-28T11:38:15;4.10;87.70
7516;DHT22;3799;47.184;8.538;2023-02-28T11:40:52;4.20;88.70
7516;DHT22;3799;47.184;8.538;2023-02-28T11:46:49;4.60;89.90
7516;DHT22;3799;47.184;8.538;2023-02-28T11:49:40;4.40;89.40
7516;DHT22;3799;47.184;8.538;2023-02-28T11:52:39;4.30;89.20
7516;DHT22;3799;47.184;8.538;2023-02-28T12:00:40;4.50;88.20
7516;DHT22;3799;47.184;8.538;2023-02-28T12:04:17;4.70;88.40
7516;DHT22;3799;47.184;8.538;2023-02-28T12:06:47;4.90;88.80
7516;DHT22;3799;47.184;8.538;2023-02-28T12:14:59;4.40;86.90
7516;DHT22;3799;47.184;8.538;2023-02-28T12:17:42;4.50;86.90
7516;DHT22;3799;47.184;8.538;2023-02-28T12:28:45;4.10;86.60
7516;DHT22;3799;47.184;8.538;2023-02-28T12:31:54;4.10;86.90
7516;DHT22;3799;47.184;8.538;2023-02-28T12:34:20;4.00;86.90
7516;DHT22;3799;47.184;8.538;2023-02-28T12:36:52;4.10;89.20
7516;DHT22;3799;47.184;8.538;2023-02-28T12:39:26;4.10;89.70
7516;DHT22;3799;47.184;8.538;2023-02-28T12:42:05;4.40;89.00
7516;DHT22;3799;47.184;8.538;2023-02-28T12:44:52;4.30;88.10
7516;DHT22;3799;47.184;8.538;2023-02-28T12:47:21;4.50;87.20
7516;DHT22;3799;47.184;8.538;2023-02-28T12:50:09;4.50;86.90
7516;DHT22;3799;47.184;8.538;2023-02-28T12:52:50;4.60;87.50
7516;DHT22;3799;47.184;8.538;2023-02-28T12:55:35;4.50;87.50
7516;DHT22;3799;47.184;8.538;2023-02-28T13:07:20;4.20;87.10
7516;DHT22;3799;47.184;8.538;2023-02-28T13:09:59;4.20;88.30
7516;DHT22;3799;47.184;8.538;2023-02-28T13:12:30;4.20;88.00
7516;DHT22;3799;47.184;8.538;2023-02-28T13:15:26;4.20;88.10
7516;DHT22;3799;47.184;8.538;2023-02-28T13:17:59;4.10;88.40
7516;DHT22;3799;47.184;8.538;2023-02-28T13:20:33;4.00;87.60
7516;DHT22;3799;47.184;8.538;2023-02-28T13:23:03;4.20;89.10
7516;DHT22;3799;47.184;8.538;2023-02-28T13:28:56;4.10;88.90
7516;DHT22;3799;47.184;8.538;2023-02-28T13:31:24;4.30;87.20
7516;DHT22;3799;47.184;8.538;2023-02-28T13:36:31;4.10;87.90
7516;DHT22;3799;47.184;8.538;2023-02-28T13:39:00;4.10;88.40
7516;DHT22;3799;47.184;8.538;2023-02-28T13:44:00;4.20;89.20
7516;DHT22;3799;47.184;8.538;2023-02-28T13:46:35;4.10;89.30
7516;DHT22;3799;47.184;8.538;2023-02-28T14:06:25;4.20;90.20
7516;DHT22;3799;47.184;8.538;2023-02-28T14:13:56;4.20;90.20
7516;DHT22;3799;47.184;8.538;2023-02-28T14:16:26;4.10;90.40
7516;DHT22;3799;47.184;8.538;2023-02-28T14:19:13;3.80;89.70
7516;DHT22;3799;47.184;8.538;2023-02-28T14:22:02;3.90;90.20
7516;DHT22;3799;47.184;8.538;2023-02-28T14:27:45;3.90;90.30
7516;DHT22;3799;47.184;8.538;2023-02-28T14:33:37;3.90;90.70
7516;DHT22;3799;47.184;8.538;2023-02-28T14:38:54;3.80;90.90
7516;DHT22;3799;47.184;8.538;2023-02-28T14:41:36;3.90;90.90
7516;DHT22;3799;47.184;8.538;2023-02-28T14:46:42;3.60;91.00
7516;DHT22;3799;47.184;8.538;2023-02-28T14:49:30;3.70;91.10
7516;DHT22;3799;47.184;8.538;2023-02-28T14:54:40;3.70;91.30
7516;DHT22;3799;47.184;8.538;2023-02-28T14:57:31;3.60;91.50
7516;DHT22;3799;47.184;8.538;2023-02-28T15:00:16;3.60;91.40
7516;DHT22;3799;47.184;8.538;2023-02-28T15:02:43;3.50;91.80
7516;DHT22;3799;47.184;8.538;2023-02-28T15:07:48;3.60;91.70
7516;DHT22;3799;47.184;8.538;2023-02-28T15:10:25;3.60;91.30
7516;DHT22;3799;47.184;8.538;2023-02-28T15:13:05;3.70;91.10
7516;DHT22;3799;47.184;8.538;2023-02-28T15:18:31;3.30;91.90
7516;DHT22;3799;47.184;8.538;2023-02-28T15:21:07;3.40;92.20
7516;DHT22;3799;47.184;8.538;2023-02-28T15:23:37;3.50;92.70
7516;DHT22;3799;47.184;8.538;2023-02-28T15:26:06;3.40;92.80
7516;DHT22;3799;47.184;8.538;2023-02-28T15:28:33;3.50;92.60
7516;DHT22;3799;47.184;8.538;2023-02-28T15:31:03;3.30;96.70
7516;DHT22;3799;47.184;8.538;2023-02-28T15:33:32;3.60;99.90
7516;DHT22;3799;47.184;8.538;2023-02-28T15:36:28;4.00;99.90
7516;DHT22;3799;47.184;8.538;2023-02-28T15:38:56;4.40;99.90
7516;DHT22;3799;47.184;8.538;2023-02-28T15:41:41;4.40;99.90
7516;DHT22;3799;47.184;8.538;2023-02-28T15:44:30;4.70;99.90
7516;DHT22;3799;47.184;8.538;2023-02-28T15:47:11;5.00;99.90
7516;DHT22;3799;47.184;8.538;2023-02-28T15:49:52;4.80;96.00
7516;DHT22;3799;47.184;8.538;2023-02-28T15:52:39;4.50;94.30
7516;DHT22;3799;47.184;8.538;2023-02-28T15:55:24;4.40;94.40
7516;DHT22;3799;47.184;8.538;2023-02-28T15:57:55;4.10;93.20
7516;DHT22;3799;47.184;8.538;2023-02-28T16:00:30;3.80;94.40
7516;DHT22;3799;47.184;8.538;2023-02-28T16:02:59;3.80;94.70
7516;DHT22;3799;47.184;8.538;2023-02-28T16:05:30;3.70;94.90
7516;DHT22;3799;47.184;8.538;2023-02-28T16:08:14;3.70;95.30
7516;DHT22;3799;47.184;8.538;2023-02-28T16:10:43;3.40;95.90
7516;DHT22;3799;47.184;8.538;2023-02-28T16:13:11;3.40;95.10
7516;DHT22;3799;47.184;8.538;2023-02-28T16:15:43;3.30;95.50
7516;DHT22;3799;47.184;8.538;2023-02-28T16:18:12;3.40;95.90
7516;DHT22;3799;47.184;8.538;2023-02-28T16:20:40;3.20;96.10
7516;DHT22;3799;47.184;8.538;2023-02-28T16:23:10;3.20;96.30
7516;DHT22;3799;47.184;8.538;2023-02-28T16:25:40;3.00;96.60
7516;DHT22;3799;47.184;8.538;2023-02-28T16:28:24;3.10;96.80
7516;DHT22;3799;47.184;8.538;2023-02-28T16:30:52;3.10;96.90
7516;DHT22;3799;47.184;8.538;2023-02-28T16:33:26;3.10;97.00
7516;DHT22;3799;47.184;8.538;2023-02-28T16:35:53;2.90;97.10
7516;DHT22;3799;47.184;8.538;2023-02-28T16:38:20;3.10;97.50
7516;DHT22;3799;47.184;8.538;2023-02-28T16:40:50;2.90;97.50
7516;DHT22;3799;47.184;8.538;2023-02-28T16:43:20;2.90;97.10
7516;DHT22;3799;47.184;8.538;2023-02-28T16:45:50;2.80;97.60
7516;DHT22;3799;47.184;8.538;2023-02-28T16:48:21;2.70;97.50
7516;DHT22;3799;47.184;8.538;2023-02-28T16:50:51;2.70;97.60
7516;DHT22;3799;47.184;8.538;2023-02-28T16:53:18;2.80;97.80
7516;DHT22;3799;47.184;8.538;2023-02-28T16:55:46;2.90;97.50
7516;DHT22;3799;47.184;8.538;2023-02-28T16:58:16;2.50;98.10
7516;DHT22;3799;47.184;8.538;2023-02-28T17:00:44;2.50;98.20
7516;DHT22;3799;47.184;8.538;2023-02-28T17:03:22;2.50;98.20
7516;DHT22;3799;47.184;8.538;2023-02-28T17:06:00;2.40;98.70
7516;DHT22;3799;47.184;8.538;2023-02-28T17:08:27;2.50;99.00
7516;DHT22;3799;47.184;8.538;2023-02-28T17:10:56;2.70;99.30
7516;DHT22;3799;47.184;8.538;2023-02-28T17:13:23;2.40;99.50
7516;DHT22;3799;47.184;8.538;2023-02-28T17:15:51;2.30;99.80
7516;DHT22;3799;47.184;8.538;2023-02-28T17:18:19;2.50;99.90
7516;DHT22;3799;47.184;8.538;2023-02-28T17:20:48;2.30;99.90
7516;DHT22;3799;47.184;8.538;2023-02-28T17:23:15;2.40;99.90
7516;DHT22;3799;47.184;8.538;2023-02-28T17:25:45;2.60;99.90
7516;DHT22;3799;47.184;8.538;2023-02-28T17:28:23;2.40;99.90
7516;DHT22;3799;47.184;8.538;2023-02-28T17:30:50;2.50;99.90
7516;DHT22;3799;47.184;8.538;2023-02-28T17:33:18;2.60;99.90
7516;DHT22;3799;47.184;8.538;2023-02-28T17:35:59;2.20;99.90
7516;DHT22;3799;47.184;8.538;2023-02-28T17:38:27;2.40;99.90
7516;DHT22;3799;47.184;8.538;2023-02-28T17:40:54;2.40;99.90
7516;DHT22;3799;47.184;8.538;2023-02-28T17:43:25;2.40;99.90
7516;DHT22;3799;47.184;8.538;2023-02-28T17:45:53;2.40;99.90
7516;DHT22;3799;47.184;8.538;2023-02-28T17:48:20;2.40;99.90
7516;DHT22;3799;47.184;8.538;2023-02-28T17:50:49;2.30;99.90
7516;DHT22;3799;47.184;8.538;2023-02-28T17:53:17;2.20;99.90
7516;DHT22;3799;47.184;8.538;2023-02-28T17:55:44;2.40;99.90
7516;DHT22;3799;47.184;8.538;2023-02-28T17:58:11;2.40;99.90
7516;DHT22;3799;47.184;8.538;2023-02-28T18:00:39;2.40;99.90
7516;DHT22;3799;47.184;8.538;2023-02-28T18:03:07;2.40;99.90
7516;DHT22;3799;47.184;8.538;2023-02-28T18:05:35;2.40;99.90
7516;DHT22;3799;47.184;8.538;2023-02-28T18:08:03;2.50;99.90
7516;DHT22;3799;47.184;8.538;2023-02-28T18:10:31;2.30;99.90
7516;DHT22;3799;47.184;8.538;2023-02-28T18:12:59;2.20;99.90
7516;DHT22;3799;47.184;8.538;2023-02-28T18:15:27;2.40;99.90
7516;DHT22;3799;47.184;8.538;2023-02-28T18:17:54;2.60;99.90
7516;DHT22;3799;47.184;8.538;2023-02-28T18:20:21;2.20;99.90
7516;DHT22;3799;47.184;8.538;2023-02-28T18:22:51;2.40;99.90
7516;DHT22;3799;47.184;8.538;2023-02-28T18:25:18;2.60;99.90
7516;DHT22;3799;47.184;8.538;2023-02-28T18:27:46;2.10;99.90
7516;DHT22;3799;47.184;8.538;2023-02-28T18:30:29;2.60;99.90
7516;DHT22;3799;47.184;8.538;2023-02-28T18:33:08;2.20;99.90
7516;DHT22;3799;47.184;8.538;2023-02-28T18:35:35;2.40;99.90
7516;DHT22;3799;47.184;8.538;2023-02-28T18:38:10;2.10;99.90
7516;DHT22;3799;47.184;8.538;2023-02-28T18:40:39;2.20;99.90
7516;DHT22;3799;47.184;8.538;2023-02-28T18:43:07;2.00;99.90
7516;DHT22;3799;47.184;8.538;2023-02-28T18:45:36;2.10;99.90
7516;DHT22;3799;47.184;8.538;2023-02-28T18:48:04;2.20;99.90
7516;DHT22;3799;47.184;8.538;2023-02-28T18:50:32;2.20;99.90
7516;DHT22;3799;47.184;8.538;2023-02-28T18:52:59;2.10;99.90
7516;DHT22;3799;47.184;8.538;2023-02-28T18:55:30;2.10;99.90
7516;DHT22;3799;47.184;8.538;2023-02-28T18:57:58;2.20;99.90
7516;DHT22;3799;47.184;8.538;2023-02-28T19:00:25;2.40;99.90